Dixon, South Dakota
Current Conditions -  °F | °C
As of 1:53 AM on Saturday 01 Nov 2014 (Local Time) from KICR Reporting Station
Clear Clear  
Wind Chill: -3°   Ceiling: Unl
Heat Index:   Visibility: 10mi
Dew Point: -10°   Wind: 16mph
Humidity: 41%   Direction: 170°S
Pressure: 30.17"   Gusts: 25mph
Location:  43.2419°N, 99.4287°W
Report Text: KICR 010653Z AUTO 17014G22KT 10SM CLR 02/M10 A3017 RMK AO2 SLP232 T00221100
Loading
Personal Weather Stations






























Interactive Weather Map
Tropical Storm Tracking
New forecast layout! Learn more

10-Day Weather Forecast

Advertisements
Track Severe Weather on mobile